createdAt,value
2022-09-12T00:02:39.407Z,46.76
2022-09-12T00:05:44.938Z,46.63
2022-09-12T00:08:48.306Z,46.34
2022-09-12T00:11:51.431Z,46.21
2022-09-12T00:14:54.677Z,46.29
2022-09-12T00:17:57.750Z,46.00
2022-09-12T00:21:06.072Z,46.13
2022-09-12T00:24:09.291Z,46.43
2022-09-12T00:27:12.320Z,45.94
2022-09-12T00:30:15.399Z,45.82
2022-09-12T00:33:19.520Z,45.98
2022-09-12T00:36:26.373Z,45.86
2022-09-12T00:39:29.431Z,45.87
2022-09-12T00:42:32.497Z,45.95
2022-09-12T00:45:35.746Z,45.57
2022-09-12T00:48:44.069Z,45.69
2022-09-12T00:51:52.756Z,45.55
2022-09-12T00:55:00.998Z,45.63
2022-09-12T00:58:08.334Z,45.48
2022-09-12T01:01:11.626Z,45.79
2022-09-12T01:04:15.213Z,45.40
2022-09-12T01:07:20.878Z,45.73
2022-09-12T01:10:25.033Z,45.55
2022-09-12T01:13:29.359Z,45.71
2022-09-12T01:16:33.452Z,45.29
2022-09-12T01:20:16.158Z,45.69
2022-09-12T01:23:39.270Z,45.44
2022-09-12T01:27:20.521Z,45.68
2022-09-12T01:30:41.766Z,45.56
2022-09-12T01:33:54.613Z,45.11
2022-09-12T01:37:05.747Z,45.38
2022-09-12T01:40:16.690Z,45.54
2022-09-12T01:43:25.256Z,45.23
2022-09-12T01:46:34.327Z,45.19
2022-09-12T01:49:42.365Z,45.16
2022-09-12T01:52:51.382Z,44.92
2022-09-12T01:55:58.722Z,45.24
2022-09-12T01:59:06.762Z,44.88
2022-09-12T02:02:17.730Z,44.97
2022-09-12T02:05:27.075Z,45.08
2022-09-12T02:08:34.907Z,44.91
2022-09-12T02:11:43.051Z,44.73
2022-09-12T02:14:51.166Z,44.80
2022-09-12T02:18:01.308Z,44.80
2022-09-12T02:21:07.712Z,44.61
2022-09-12T02:24:14.082Z,44.36
2022-09-12T02:27:20.962Z,44.75
2022-09-12T02:30:27.375Z,44.78
2022-09-12T02:33:40.111Z,44.55
2022-09-12T02:36:51.346Z,44.58
2022-09-12T02:39:55.320Z,44.27
2022-09-12T02:42:59.115Z,44.29
2022-09-12T02:46:02.243Z,44.19
2022-09-12T02:49:09.344Z,44.11
2022-09-12T02:52:12.779Z,44.33
2022-09-12T02:55:17.101Z,44.27
2022-09-12T02:58:25.390Z,44.15
2022-09-12T03:01:42.183Z,44.14
2022-09-12T03:05:14.623Z,44.22
2022-09-12T03:08:36.891Z,43.74
2022-09-12T03:11:52.497Z,43.54
2022-09-12T03:15:18.255Z,43.33
2022-09-12T03:18:35.663Z,43.70
2022-09-12T03:21:52.005Z,43.59
2022-09-12T03:25:01.675Z,43.24
2022-09-12T03:28:09.457Z,43.31
2022-09-12T03:31:16.610Z,43.09
2022-09-12T03:34:20.407Z,43.43
2022-09-12T03:37:25.005Z,43.23
2022-09-12T03:40:28.055Z,43.37
2022-09-12T03:43:31.287Z,43.12
2022-09-12T03:46:34.386Z,43.21
2022-09-12T03:49:37.483Z,44.37
2022-09-12T03:52:42.038Z,43.62
2022-09-12T03:55:45.224Z,43.65
2022-09-12T03:58:48.395Z,43.68
2022-09-12T04:01:51.520Z,43.32
2022-09-12T04:04:54.574Z,43.21
2022-09-12T04:07:59.452Z,42.83
2022-09-12T04:11:06.461Z,42.64
2022-09-12T04:14:09.672Z,42.83
2022-09-12T04:17:13.074Z,43.74
2022-09-12T04:20:16.297Z,42.88
2022-09-12T04:23:21.031Z,43.29
2022-09-12T04:26:24.229Z,42.61
2022-09-12T04:29:27.871Z,42.77
2022-09-12T04:32:32.087Z,42.87
2022-09-12T04:35:36.661Z,42.50
2022-09-12T04:38:41.315Z,42.53
2022-09-12T04:41:44.527Z,42.40
2022-09-12T04:44:47.945Z,42.61
2022-09-12T04:47:51.049Z,42.56
2022-09-12T04:50:54.172Z,42.44
2022-09-12T04:54:00.347Z,42.39
2022-09-12T04:57:03.486Z,42.55
2022-09-12T05:00:07.668Z,42.43
2022-09-12T05:03:10.932Z,42.45
2022-09-12T05:06:17.704Z,42.80
2022-09-12T05:09:22.328Z,42.45
2022-09-12T05:12:25.775Z,42.54
2022-09-12T05:15:28.927Z,42.61
2022-09-12T05:18:33.219Z,42.48
2022-09-12T05:21:36.471Z,42.40
2022-09-12T05:24:47.305Z,42.39
2022-09-12T05:27:54.381Z,42.58
2022-09-12T05:31:02.533Z,42.31
2022-09-12T05:34:10.377Z,42.26
2022-09-12T05:37:13.471Z,42.35
2022-09-12T05:40:19.425Z,42.06
2022-09-12T05:43:22.467Z,41.96
2022-09-12T05:46:27.201Z,41.99
2022-09-12T05:49:30.338Z,41.87
2022-09-12T05:52:33.687Z,42.37
2022-09-12T05:55:38.096Z,42.04
2022-09-12T05:58:43.291Z,42.08
2022-09-12T06:01:47.115Z,42.21
2022-09-12T06:04:50.483Z,41.85
2022-09-12T06:07:53.555Z,41.32
2022-09-12T06:11:02.437Z,41.35
2022-09-12T06:14:05.785Z,40.87
2022-09-12T06:17:08.798Z,41.35
2022-09-12T06:20:11.845Z,41.59
2022-09-12T06:23:15.061Z,41.23
2022-09-12T06:26:21.790Z,41.35
2022-09-12T06:29:25.047Z,41.28
2022-09-12T06:32:31.768Z,41.28
2022-09-12T06:35:37.495Z,41.08
2022-09-12T06:38:40.989Z,41.22
2022-09-12T06:41:46.359Z,41.04
2022-09-12T06:44:50.819Z,40.85
2022-09-12T06:47:53.877Z,41.00
2022-09-12T06:50:58.863Z,41.21
2022-09-12T06:54:01.869Z,41.03
2022-09-12T06:57:06.630Z,41.25
2022-09-12T07:00:11.516Z,40.75
2022-09-12T07:03:14.708Z,41.26
2022-09-12T07:06:19.717Z,41.19
2022-09-12T07:09:22.718Z,40.94
2022-09-12T07:12:28.753Z,41.05
2022-09-12T07:15:31.894Z,41.31
2022-09-12T07:18:35.622Z,41.20
2022-09-12T07:21:40.483Z,40.85
2022-09-12T07:24:46.055Z,41.13
2022-09-12T07:27:51.299Z,41.16
2022-09-12T07:30:55.020Z,40.98
2022-09-12T07:33:58.074Z,40.49
2022-09-12T07:37:01.087Z,40.88
2022-09-12T07:40:04.308Z,41.04
2022-09-12T07:43:08.805Z,40.81
2022-09-12T07:46:12.157Z,40.71
2022-09-12T07:49:15.296Z,41.06
2022-09-12T07:52:18.693Z,40.87
2022-09-12T07:55:23.321Z,40.90
2022-09-12T07:58:28.074Z,40.97
2022-09-12T08:01:31.442Z,40.53
2022-09-12T08:04:36.467Z,40.21
2022-09-12T08:07:39.583Z,40.16
2022-09-12T08:10:43.007Z,40.59
2022-09-12T08:13:52.986Z,40.34
2022-09-12T08:16:58.645Z,40.46
2022-09-12T08:20:02.251Z,40.32
2022-09-12T08:23:05.360Z,40.59
2022-09-12T08:26:08.869Z,40.51
2022-09-12T08:29:13.489Z,39.95
2022-09-12T08:32:16.545Z,39.55
2022-09-12T08:35:19.821Z,39.60
2022-09-12T08:38:24.426Z,40.02
2022-09-12T08:41:31.508Z,40.29
2022-09-12T08:44:54.761Z,40.13
2022-09-12T08:47:58.156Z,40.14
2022-09-12T08:51:05.107Z,40.44
2022-09-12T08:54:20.862Z,40.67
2022-09-12T08:57:25.315Z,40.28
2022-09-12T09:00:40.821Z,40.90
2022-09-12T09:04:06.073Z,40.35
2022-09-12T09:07:34.653Z,40.33
2022-09-12T09:10:48.894Z,40.21
2022-09-12T09:14:20.301Z,40.08
2022-09-12T09:17:29.088Z,40.08
2022-09-12T09:20:36.691Z,39.95
2022-09-12T09:23:43.826Z,40.05
2022-09-12T09:26:53.057Z,40.56
2022-09-12T09:29:57.319Z,39.79
2022-09-12T09:33:04.864Z,39.96
2022-09-12T09:36:22.472Z,40.18
2022-09-12T09:39:37.616Z,39.82
2022-09-12T09:42:46.910Z,39.43
2022-09-12T09:45:51.984Z,39.46
2022-09-12T09:49:02.298Z,39.86
2022-09-12T09:52:08.402Z,39.55
2022-09-12T09:55:18.289Z,39.68
2022-09-12T09:58:30.443Z,39.40
2022-09-12T10:01:33.667Z,39.38
2022-09-12T10:04:42.146Z,39.49
2022-09-12T10:07:51.747Z,39.17
2022-09-12T10:11:00.812Z,39.75
2022-09-12T10:14:04.724Z,39.96
2022-09-12T10:17:34.213Z,39.51
2022-09-12T10:20:41.906Z,39.72
2022-09-12T10:23:46.262Z,39.72
2022-09-12T10:26:56.714Z,39.59
2022-09-12T10:30:04.323Z,39.37
2022-09-12T10:33:12.898Z,39.14
2022-09-12T10:36:18.487Z,39.50
2022-09-12T10:39:22.530Z,39.32
2022-09-12T10:42:48.105Z,39.34
2022-09-12T10:45:52.017Z,39.34
2022-09-12T10:49:15.233Z,39.40
2022-09-12T10:52:24.555Z,39.48
2022-09-12T10:55:36.526Z,39.59
2022-09-12T10:59:08.105Z,39.75
2022-09-12T11:02:21.524Z,39.10
2022-09-12T11:05:39.286Z,39.32
2022-09-12T11:08:59.527Z,39.11
2022-09-12T11:12:12.941Z,39.15
2022-09-12T11:15:35.346Z,39.18
2022-09-12T11:18:58.143Z,39.29
2022-09-12T11:22:21.491Z,38.87
2022-09-12T11:25:33.038Z,39.00
2022-09-12T11:28:47.277Z,39.41
2022-09-12T11:32:09.442Z,39.24
2022-09-12T11:35:20.596Z,39.19
2022-09-12T11:38:39.326Z,39.80
2022-09-12T11:41:48.064Z,39.47
2022-09-12T11:44:59.534Z,39.28
2022-09-12T11:48:09.057Z,39.39
2022-09-12T11:51:20.085Z,39.14
2022-09-12T11:54:29.876Z,39.15
2022-09-12T11:57:41.058Z,39.16
2022-09-12T12:00:49.530Z,39.15
2022-09-12T12:03:55.714Z,39.38
2022-09-12T12:07:06.133Z,39.36
2022-09-12T12:10:27.264Z,39.01
2022-09-12T12:13:35.349Z,39.49
2022-09-12T12:16:40.335Z,39.30
2022-09-12T12:19:43.915Z,39.37
2022-09-12T12:22:53.690Z,39.22
2022-09-12T12:25:59.242Z,39.54
2022-09-12T12:29:03.912Z,39.38
2022-09-12T12:32:28.321Z,39.70
2022-09-12T12:35:42.760Z,39.58
2022-09-12T12:38:46.015Z,39.49
2022-09-12T12:41:49.142Z,39.33
2022-09-12T12:44:53.855Z,39.68
2022-09-12T12:48:03.167Z,39.22
2022-09-12T12:51:48.469Z,39.32
2022-09-12T12:54:56.542Z,39.15
2022-09-12T12:58:01.511Z,39.34
2022-09-12T13:01:12.861Z,39.57
2022-09-12T13:04:19.251Z,39.52
2022-09-12T13:07:28.936Z,39.62
2022-09-12T13:10:33.101Z,39.77
2022-09-12T13:13:40.480Z,39.60
2022-09-12T13:16:56.979Z,39.68
2022-09-12T13:20:26.598Z,39.39
2022-09-12T13:23:32.631Z,40.23
2022-09-12T13:26:41.694Z,40.32
2022-09-12T13:29:44.743Z,40.00
2022-09-12T13:32:49.315Z,40.19
2022-09-12T13:36:09.987Z,39.86
2022-09-12T13:39:20.359Z,40.06
2022-09-12T13:42:42.826Z,40.05
2022-09-12T13:45:48.297Z,39.84
2022-09-12T13:48:52.926Z,39.86
2022-09-12T13:52:01.236Z,40.17
2022-09-12T13:55:09.894Z,40.29
2022-09-12T13:58:24.330Z,39.71
2022-09-12T14:01:39.761Z,40.07
2022-09-12T14:05:06.140Z,39.61
2022-09-12T14:08:10.513Z,39.48
2022-09-12T14:11:22.787Z,39.43
2022-09-12T14:14:32.019Z,39.58
2022-09-12T14:17:37.438Z,39.66
2022-09-12T14:20:42.994Z,39.79
2022-09-12T14:23:48.860Z,40.10
2022-09-12T14:26:56.976Z,40.11
2022-09-12T14:30:03.880Z,40.10
2022-09-12T14:33:20.001Z,39.71
2022-09-12T14:36:28.661Z,39.56
2022-09-12T14:39:35.025Z,39.69
2022-09-12T14:42:38.250Z,39.32
2022-09-12T14:45:41.560Z,39.79
2022-09-12T14:48:49.128Z,39.73
2022-09-12T14:52:00.167Z,39.51
2022-09-12T14:55:05.866Z,39.56
2022-09-12T14:58:16.081Z,39.51
2022-09-12T15:01:28.555Z,39.28
2022-09-12T15:04:41.946Z,39.22
2022-09-12T15:07:54.016Z,39.56
2022-09-12T15:10:57.508Z,39.16
2022-09-12T15:14:07.707Z,39.09
2022-09-12T15:17:11.223Z,39.13
2022-09-12T15:20:15.251Z,39.02
2022-09-12T15:23:31.266Z,39.18
2022-09-12T15:26:34.336Z,38.85
2022-09-12T15:29:37.388Z,39.14
2022-09-12T15:32:41.254Z,38.89
2022-09-12T15:35:44.429Z,38.97
2022-09-12T15:38:49.865Z,38.97
2022-09-12T15:41:52.891Z,38.71
2022-09-12T15:45:01.791Z,39.47
2022-09-12T15:48:06.342Z,39.56
2022-09-12T15:51:15.390Z,39.86
2022-09-12T15:54:21.802Z,39.29
2022-09-12T15:57:25.192Z,39.67
2022-09-12T16:00:28.364Z,39.13
2022-09-12T16:03:31.796Z,39.35
2022-09-12T16:06:37.168Z,40.09
2022-09-12T16:09:42.545Z,40.10
2022-09-12T16:12:46.601Z,40.18
2022-09-12T16:15:50.027Z,39.52
2022-09-12T16:18:53.452Z,38.96
2022-09-12T16:21:58.734Z,38.99
2022-09-12T16:25:03.390Z,39.20
2022-09-12T16:28:07.336Z,39.16
2022-09-12T16:31:13.609Z,38.81
2022-09-12T16:34:16.743Z,38.58
2022-09-12T16:37:20.211Z,38.77
2022-09-12T16:40:25.194Z,39.08
2022-09-12T16:43:28.386Z,39.17
2022-09-12T16:46:31.996Z,39.01
2022-09-12T16:49:35.079Z,39.01
2022-09-12T16:52:38.112Z,38.79
2022-09-12T16:55:49.866Z,39.07
2022-09-12T16:58:53.266Z,38.55
2022-09-12T17:01:56.384Z,39.10
2022-09-12T17:04:59.516Z,39.11
2022-09-12T17:08:03.170Z,39.10
2022-09-12T17:11:09.542Z,39.13
2022-09-12T17:14:13.000Z,38.68
2022-09-12T17:17:16.223Z,38.56
2022-09-12T17:20:23.886Z,38.53
2022-09-12T17:23:27.704Z,38.60
2022-09-12T17:26:33.242Z,38.73
2022-09-12T17:29:42.082Z,39.08
2022-09-12T17:32:46.123Z,39.08
2022-09-12T17:35:51.445Z,38.98
2022-09-12T17:38:54.893Z,39.28
2022-09-12T17:42:01.712Z,39.20
2022-09-12T17:45:05.413Z,39.52
2022-09-12T17:48:10.929Z,39.21
2022-09-12T17:51:15.546Z,39.04
2022-09-12T17:54:20.916Z,38.73
2022-09-12T17:57:26.197Z,38.71
2022-09-12T18:00:43.889Z,38.73
2022-09-12T18:03:47.421Z,38.38
2022-09-12T18:06:50.962Z,38.36
2022-09-12T18:09:54.618Z,38.08
2022-09-12T18:12:59.902Z,38.13
2022-09-12T18:16:07.589Z,37.80
2022-09-12T18:19:10.951Z,38.34
2022-09-12T18:22:14.388Z,37.90
2022-09-12T18:25:17.787Z,37.39
2022-09-12T18:28:23.352Z,37.46
2022-09-12T18:31:28.977Z,37.57
2022-09-12T18:34:32.208Z,37.54
2022-09-12T18:37:35.334Z,37.47
2022-09-12T18:40:38.553Z,37.33
2022-09-12T18:43:43.289Z,37.35
2022-09-12T18:46:46.708Z,37.33
2022-09-12T18:49:49.753Z,37.02
2022-09-12T18:52:56.689Z,37.38
2022-09-12T18:56:04.255Z,37.73
2022-09-12T18:59:12.866Z,36.99
2022-09-12T19:02:17.690Z,37.71
2022-09-12T19:05:20.829Z,37.08
2022-09-12T19:08:23.935Z,37.62
2022-09-12T19:11:28.647Z,37.53
2022-09-12T19:14:33.437Z,37.82
2022-09-12T19:17:36.659Z,37.78
2022-09-12T19:20:40.126Z,37.37
2022-09-12T19:23:43.894Z,37.61
2022-09-12T19:26:47.266Z,38.19
2022-09-12T19:29:51.734Z,38.47
2022-09-12T19:32:54.896Z,38.29
2022-09-12T19:36:01.858Z,38.54
2022-09-12T19:39:05.499Z,38.36
2022-09-12T19:42:08.798Z,38.73
2022-09-12T19:45:13.345Z,38.70
2022-09-12T19:48:16.406Z,38.60
2022-09-12T19:51:20.871Z,38.61
2022-09-12T19:54:24.032Z,38.70
2022-09-12T19:57:27.084Z,38.59
2022-09-12T20:00:31.803Z,38.23
2022-09-12T20:03:36.254Z,38.54
2022-09-12T20:06:39.371Z,38.38
2022-09-12T20:09:42.473Z,38.29
2022-09-12T20:12:45.832Z,38.39
2022-09-12T20:15:50.360Z,38.27
2022-09-12T20:18:57.870Z,38.01
2022-09-12T20:22:01.199Z,38.37
2022-09-12T20:25:04.976Z,38.31
2022-09-12T20:28:08.133Z,38.40
2022-09-12T20:31:16.297Z,37.78
2022-09-12T20:34:22.154Z,37.99
2022-09-12T20:37:25.560Z,38.31
2022-09-12T20:40:28.697Z,38.43
2022-09-12T20:43:31.896Z,38.23
2022-09-12T20:46:36.583Z,38.32
2022-09-12T20:49:39.694Z,38.02
2022-09-12T20:52:42.852Z,38.11
2022-09-12T20:55:52.009Z,37.85
2022-09-12T20:58:55.864Z,37.94
2022-09-12T21:02:00.465Z,37.82
2022-09-12T21:05:03.668Z,38.14
2022-09-12T21:08:07.282Z,37.83
2022-09-12T21:11:11.142Z,37.86
2022-09-12T21:14:14.543Z,37.97
2022-09-12T21:17:18.980Z,37.95
2022-09-12T21:20:22.290Z,37.83
2022-09-12T21:23:26.921Z,37.83
2022-09-12T21:26:31.823Z,37.83
2022-09-12T21:29:34.866Z,37.85
2022-09-12T21:32:41.530Z,38.03
2022-09-12T21:35:44.634Z,38.06
2022-09-12T21:38:47.698Z,38.12
2022-09-12T21:41:50.788Z,38.06
2022-09-12T21:44:53.914Z,37.94
2022-09-12T21:47:58.967Z,37.96
2022-09-12T21:51:02.318Z,37.72
2022-09-12T21:54:05.624Z,37.92
2022-09-12T21:57:09.270Z,37.96
2022-09-12T22:00:15.237Z,38.06
2022-09-12T22:03:19.888Z,37.84
2022-09-12T22:06:22.934Z,37.91
2022-09-12T22:09:25.943Z,38.19
2022-09-12T22:12:29.453Z,38.07
2022-09-12T22:15:41.101Z,38.10
2022-09-12T22:18:47.595Z,37.99
2022-09-12T22:22:08.180Z,38.21
2022-09-12T22:25:12.738Z,38.07
2022-09-12T22:28:16.056Z,38.36
2022-09-12T22:31:19.226Z,38.22
2022-09-12T22:34:23.739Z,38.35
2022-09-12T22:37:26.829Z,38.32
2022-09-12T22:40:29.918Z,38.41
2022-09-12T22:43:33.806Z,38.57
2022-09-12T22:46:37.942Z,38.46
2022-09-12T22:49:42.598Z,38.43
2022-09-12T22:52:45.743Z,38.52
2022-09-12T22:55:48.850Z,38.53
2022-09-12T22:58:52.232Z,38.37
2022-09-12T23:01:55.236Z,38.57
2022-09-12T23:04:59.657Z,38.32
2022-09-12T23:08:03.002Z,38.46
2022-09-12T23:11:08.095Z,38.90
2022-09-12T23:14:11.212Z,38.71
2022-09-12T23:17:14.482Z,38.50
2022-09-12T23:20:18.999Z,38.50
2022-09-12T23:23:22.184Z,38.71
2022-09-12T23:26:28.231Z,38.36
2022-09-12T23:29:35.477Z,38.65
2022-09-12T23:32:38.663Z,38.87
2022-09-12T23:35:44.330Z,38.79
2022-09-12T23:38:48.648Z,38.94
2022-09-12T23:41:52.203Z,38.61
2022-09-12T23:44:55.600Z,38.99
2022-09-12T23:47:58.630Z,38.93
2022-09-12T23:51:03.536Z,38.46
2022-09-12T23:54:06.683Z,38.63
2022-09-12T23:57:09.910Z,38.92
